Artesia Wells, Texas
Current Conditions -  °F | °C
As of 5:53 PM on Friday 19 Dec 2014 (Local Time) from KCOT Reporting Station
Few Clouds Few Clouds  
Wind Chill: 17°   Ceiling: Unl
Heat Index: 17°   Visibility: 10mi
Dew Point: 10°   Wind: 6mph
Humidity: 63%   Direction: 30°NNE
Pressure: 30.08"   Gusts: NA
Location:  28.28°N, 99.29°W
Report Text: KCOT 192353Z AUTO 03005KT 10SM FEW080 17/10 A3008 RMK AO2 SLP181 60000 T01720100 10200 20156 53007
Loading
Personal Weather Stations






























Interactive Weather Map New forecast layout! Learn more

10-Day Weather Forecast

Advertisements
Track Severe Weather on mobile